Trelew/Rawson, Argentina
Current Conditions -  °F | °C
As of 7:00 AM on Friday 19 Dec 2014 (Local Time) from SAVC Reporting Station
Scattered Clouds Scattered Clouds  
Wind Chill: 54°   Ceiling: Unl
Heat Index: 54°   Visibility: 6mi
Dew Point: 34°   Wind: 17mph
Humidity: 47%   Direction: 250°WSW
Pressure: 29.26"   Gusts: NA
Location:  43.2°S, 65.27°W
Report Text: SAVC 191000Z 25015KT 9999 FEW035 SCT10012/01 Q0991
Loading
Personal Weather Stations






























Interactive Weather Map New forecast layout! Learn more

10-Day Weather Forecast

Advertisements
Track Severe Weather on mobile